createdAt,value
2016-06-04T00:02:42.862Z,17.2
2016-06-04T00:05:56.714Z,17.2
2016-06-04T00:09:10.457Z,17.1
2016-06-04T00:12:24.495Z,17.1
2016-06-04T00:15:43.709Z,17.1
2016-06-04T00:18:48.108Z,17
2016-06-04T00:22:02.289Z,17
2016-06-04T00:25:16.859Z,17
2016-06-04T00:28:28.944Z,17
2016-06-04T00:31:43.127Z,17
2016-06-04T00:34:57.292Z,17
2016-06-04T00:38:11.582Z,16.9
2016-06-04T00:41:25.761Z,16.9
2016-06-04T00:44:44.396Z,16.8
2016-06-04T00:47:48.905Z,16.8
2016-06-04T00:51:02.601Z,16.8
2016-06-04T00:54:16.609Z,16.7
2016-06-04T00:57:30.679Z,16.7
2016-06-04T01:00:45.018Z,16.7
2016-06-04T01:03:59.369Z,16.7
2016-06-04T01:07:13.117Z,16.6
2016-06-04T01:10:25.446Z,16.6
2016-06-04T01:13:44.708Z,16.5
2016-06-04T01:16:49.001Z,16.5
2016-06-04T01:20:03.121Z,16.5
2016-06-04T01:23:17.303Z,16.4
2016-06-04T01:26:31.172Z,16.4
2016-06-04T01:29:45.152Z,16.3
2016-06-04T01:32:59.410Z,16.3
2016-06-04T01:36:13.528Z,16.2
2016-06-04T01:39:27.833Z,16.2
2016-06-04T01:42:46.859Z,16.2
2016-06-04T01:45:51.305Z,16.1
2016-06-04T01:49:04.860Z,16
2016-06-04T01:52:18.993Z,15.9
2016-06-04T01:55:32.719Z,15.9
2016-06-04T01:58:46.512Z,15.8
2016-06-04T02:02:00.754Z,15.9
2016-06-04T02:05:13.121Z,15.8
2016-06-04T02:08:25.364Z,15.7
2016-06-04T02:11:46.374Z,15.8
2016-06-04T02:14:50.789Z,15.8
2016-06-04T02:18:04.953Z,15.7
2016-06-04T02:21:17.305Z,15.7
2016-06-04T02:24:31.330Z,15.7
2016-06-04T02:27:45.477Z,15.6
2016-06-04T02:30:59.629Z,15.6
2016-06-04T02:34:13.543Z,15.6
2016-06-04T02:37:25.364Z,15.6
2016-06-04T02:40:41.825Z,15.6
2016-06-04T02:43:45.395Z,15.6
2016-06-04T02:46:59.078Z,15.5
2016-06-04T02:50:13.024Z,15.5
2016-06-04T02:53:27.329Z,15.5
2016-06-04T02:56:46.368Z,15.5
2016-06-04T02:59:50.723Z,15.5
2016-06-04T03:03:02.449Z,15.5
2016-06-04T03:06:18.692Z,15.4
2016-06-04T03:09:32.950Z,15.4
2016-06-04T03:12:44.833Z,15.4
2016-06-04T03:15:56.453Z,15.3
2016-06-04T03:19:10.665Z,15.3
2016-06-04T03:22:24.423Z,15.3
2016-06-04T03:25:43.836Z,15.2
2016-06-04T03:28:47.533Z,15.2
2016-06-04T03:32:01.685Z,15.2
2016-06-04T03:35:15.785Z,15.2
2016-06-04T03:38:29.496Z,15.2
2016-06-04T03:41:48.051Z,15.3
2016-06-04T03:44:52.406Z,15.3
2016-06-04T03:48:06.289Z,15.3
2016-06-04T03:51:16.938Z,15.3
2016-06-04T03:54:29.289Z,15.3
2016-06-04T03:57:48.501Z,15.3
2016-06-04T04:00:52.855Z,15.3
2016-06-04T04:04:06.848Z,15.3
2016-06-04T04:07:17.746Z,15.4
2016-06-04T04:10:31.817Z,15.4
2016-06-04T04:13:48.200Z,15.4
2016-06-04T04:16:52.617Z,15.4
2016-06-04T04:20:06.609Z,15.4
2016-06-04T04:23:20.633Z,15.5
2016-06-04T04:26:39.580Z,15.5
2016-06-04T04:29:43.791Z,15.6
2016-06-04T04:32:57.879Z,15.6
2016-06-04T04:36:11.340Z,15.7
2016-06-04T04:39:25.333Z,15.8
2016-06-04T04:42:44.403Z,15.9
2016-06-04T04:45:48.912Z,16
2016-06-04T04:49:03.109Z,16.2
2016-06-04T04:52:17.024Z,16.4
2016-06-04T04:55:31.267Z,16.6
2016-06-04T04:58:45.134Z,16.9
2016-06-04T05:01:58.910Z,17.1
2016-06-04T05:05:10.418Z,17.3
2016-06-04T05:08:24.801Z,17.6
2016-06-04T05:11:44.106Z,17.8
2016-06-04T05:14:48.740Z,18.1
2016-06-04T05:18:02.859Z,18.3
2016-06-04T05:21:17.165Z,18.5
2016-06-04T05:24:31.720Z,18.8
2016-06-04T05:27:45.883Z,19
2016-06-04T05:30:59.504Z,19
2016-06-04T05:34:14.183Z,19.3
2016-06-04T05:37:25.708Z,19.5
2016-06-04T05:40:45.232Z,19.8
2016-06-04T05:43:50.192Z,20.1
2016-06-04T05:47:04.843Z,20.4
2016-06-04T05:50:19.383Z,20.6
2016-06-04T05:53:34.078Z,20.9
2016-06-04T05:56:48.586Z,21.3
2016-06-04T06:00:03.410Z,21.6
2016-06-04T06:03:18.059Z,21.7
2016-06-04T06:06:32.707Z,22
2016-06-04T06:09:49.199Z,22.3
2016-06-04T06:12:54.207Z,22.5
2016-06-04T06:16:08.593Z,22.5
2016-06-04T06:19:23.086Z,22.6
2016-06-04T06:22:42.203Z,22.6
2016-06-04T06:25:46.899Z,22.6
2016-06-04T06:29:01.331Z,23.2
2016-06-04T06:32:12.121Z,22.9
2016-06-04T06:35:25.894Z,23.3
2016-06-04T06:38:44.840Z,23.9
2016-06-04T06:41:49.660Z,24
2016-06-04T06:45:04.015Z,24
2016-06-04T06:48:18.429Z,24.3
2016-06-04T06:51:32.454Z,24.6
2016-06-04T06:54:47.180Z,25.6
2016-06-04T06:58:01.800Z,25.9
2016-06-04T07:01:15.981Z,25.2
2016-06-04T07:04:30.207Z,25.3
2016-06-04T07:07:45.184Z,26.4
2016-06-04T07:11:00.148Z,27.5
2016-06-04T07:14:15.157Z,28.6
2016-06-04T07:17:29.351Z,29.6
2016-06-04T07:20:48.625Z,30.1
2016-06-04T07:23:52.681Z,30
2016-06-04T07:27:06.112Z,30
2016-06-04T07:30:19.886Z,30.3
2016-06-04T07:33:33.832Z,30.8
2016-06-04T07:36:47.965Z,31.4
2016-06-04T07:40:01.866Z,31.3
2016-06-04T07:43:15.313Z,31.9
2016-06-04T07:46:29.867Z,32.5
2016-06-04T07:49:49.453Z,32.1
2016-06-04T07:52:54.148Z,31.8
2016-06-04T07:56:08.472Z,31.5
2016-06-04T07:59:22.511Z,31.6
2016-06-04T08:02:34.753Z,32
2016-06-04T08:05:49.183Z,32.4
2016-06-04T08:09:03.788Z,32.5
2016-06-04T08:12:18.765Z,32.4
2016-06-04T08:15:32.008Z,32.5
2016-06-04T08:18:46.140Z,32.3
2016-06-04T08:22:00.901Z,32.4
2016-06-04T08:25:15.175Z,32.6
2016-06-04T08:28:29.401Z,33
2016-06-04T08:31:48.738Z,33.4
2016-06-04T08:34:54.090Z,33.9
2016-06-04T08:38:08.553Z,34.1
2016-06-04T08:41:23.296Z,34
2016-06-04T08:44:42.899Z,34.3
2016-06-04T08:47:48.265Z,34.7
2016-06-04T08:51:02.448Z,35.1
2016-06-04T08:54:17.159Z,35.5
2016-06-04T08:57:31.604Z,35
2016-06-04T09:00:45.956Z,34.8
2016-06-04T09:04:00.433Z,34.8
2016-06-04T09:07:14.647Z,35
2016-06-04T09:10:28.499Z,34.9
2016-06-04T09:13:47.913Z,34.8
2016-06-04T09:16:53.235Z,35.1
2016-06-04T09:20:07.604Z,35
2016-06-04T09:23:21.815Z,34.6
2016-06-04T09:26:41.307Z,34.9
2016-06-04T09:29:46.566Z,35.3
2016-06-04T09:33:00.417Z,35.3
2016-06-04T09:36:14.663Z,34.9
2016-06-04T09:39:29.124Z,34.9
2016-06-04T09:42:48.258Z,34.8
2016-06-04T09:45:53.296Z,35
2016-06-04T09:49:07.791Z,34.8
2016-06-04T09:52:21.909Z,34.5
2016-06-04T09:55:33.292Z,33.8
2016-06-04T09:58:49.051Z,33.3
2016-06-04T10:02:02.105Z,33
2016-06-04T10:05:15.726Z,32.6
2016-06-04T10:08:29.240Z,31.3
2016-06-04T10:11:47.724Z,30.8
2016-06-04T10:14:52.043Z,30.5
2016-06-04T10:18:05.923Z,30.4
2016-06-04T10:21:22.476Z,30.3
2016-06-04T10:24:33.395Z,29.7
2016-06-04T10:27:47.343Z,29.3
2016-06-04T10:31:01.304Z,29.2
2016-06-04T10:34:15.127Z,29
2016-06-04T10:37:28.682Z,28.8
2016-06-04T10:40:47.518Z,28.8
2016-06-04T10:43:51.918Z,28.4
2016-06-04T10:47:03.675Z,28.2
2016-06-04T10:50:17.670Z,28.2
2016-06-04T10:53:31.163Z,28.1
2016-06-04T10:56:49.827Z,28
2016-06-04T10:59:54.117Z,27.5
2016-06-04T11:03:07.781Z,27.2
2016-06-04T11:06:21.416Z,27.3
2016-06-04T11:09:34.753Z,27.1
2016-06-04T11:12:48.215Z,26.6
2016-06-04T11:16:01.316Z,26.3
2016-06-04T11:19:14.687Z,26.1
2016-06-04T11:22:28.053Z,26
2016-06-04T11:25:46.672Z,25.8
2016-06-04T11:28:50.523Z,25.4
2016-06-04T11:32:03.703Z,25.2
2016-06-04T11:35:17.199Z,25.3
2016-06-04T11:38:30.675Z,25.2
2016-06-04T11:41:49.151Z,24.9
2016-06-04T11:44:53.144Z,24.7
2016-06-04T11:48:06.793Z,24.7
2016-06-04T11:51:20.226Z,24.7
2016-06-04T11:54:33.937Z,24.7
2016-06-04T11:57:47.445Z,24.7
2016-06-04T12:01:01.078Z,24.6
2016-06-04T12:04:14.620Z,24.4
2016-06-04T12:07:27.877Z,24.4
2016-06-04T12:10:46.105Z,24.3
2016-06-04T12:13:49.457Z,24.3
2016-06-04T12:17:00.621Z,24.3
2016-06-04T12:20:13.773Z,24.2
2016-06-04T12:23:27.139Z,24.2
2016-06-04T12:26:45.225Z,24.2
2016-06-04T12:29:48.734Z,24.2
2016-06-04T12:32:57.727Z,24.2
2016-06-04T12:36:12.953Z,24.1
2016-06-04T12:39:25.933Z,23.8
2016-06-04T12:42:35.207Z,23.7
2016-06-04T12:45:48.042Z,23.7
2016-06-04T12:49:00.926Z,23.7
2016-06-04T12:52:13.293Z,23.7
2016-06-04T12:55:26.148Z,23.7
2016-06-04T12:58:44.437Z,23.6
2016-06-04T13:01:47.789Z,23.7
2016-06-04T13:05:01.203Z,23.7
2016-06-04T13:08:14.352Z,23.7
2016-06-04T13:11:27.628Z,23.7
2016-06-04T13:14:45.917Z,23.7
2016-06-04T13:17:49.535Z,23.7
2016-06-04T13:21:02.839Z,23.7
2016-06-04T13:24:16.176Z,23.7
2016-06-04T13:27:29.484Z,23.7
2016-06-04T13:30:47.664Z,23.7
2016-06-04T13:33:51.297Z,23.7
2016-06-04T13:37:04.508Z,23.8
2016-06-04T13:40:17.813Z,23.8
2016-06-04T13:43:30.902Z,23.8
2016-06-04T13:46:49.238Z,23.6
2016-06-04T13:49:52.746Z,23.6
2016-06-04T13:53:05.442Z,23.6
2016-06-04T13:56:18.575Z,23.6
2016-06-04T13:59:29.289Z,23.7
2016-06-04T14:02:47.265Z,23.7
2016-06-04T14:05:50.648Z,23.7
2016-06-04T14:09:03.844Z,23.7
2016-06-04T14:12:16.821Z,23.7
2016-06-04T14:15:29.910Z,23.7
2016-06-04T14:18:47.746Z,23.7
2016-06-04T14:21:50.988Z,23.7
2016-06-04T14:25:04.074Z,23.7
2016-06-04T14:28:16.958Z,23.7
2016-06-04T14:31:30.359Z,23.7
2016-06-04T14:34:48.336Z,23.7
2016-06-04T14:37:51.828Z,23.7
2016-06-04T14:41:04.930Z,23.7
2016-06-04T14:44:17.485Z,23.7
2016-06-04T14:47:30.871Z,23.7
2016-06-04T14:50:48.926Z,23.6
2016-06-04T14:53:52.356Z,23.7
2016-06-04T14:57:05.598Z,23.7
2016-06-04T15:00:18.700Z,23.7
2016-06-04T15:03:32.054Z,23.7
2016-06-04T15:06:50.281Z,23.8
2016-06-04T15:09:53.695Z,23.8
2016-06-04T15:13:07.078Z,23.7
2016-06-04T15:16:20.305Z,23.7
2016-06-04T15:19:33.519Z,23.6
2016-06-04T15:22:51.715Z,23.7
2016-06-04T15:25:55.176Z,23.7
2016-06-04T15:29:08.434Z,23.6
2016-06-04T15:32:21.848Z,23.7
2016-06-04T15:35:35.203Z,23.6
2016-06-04T15:38:48.555Z,23.6
2016-06-04T15:41:59.719Z,23.5
2016-06-04T15:45:15.071Z,23.5
2016-06-04T15:48:28.441Z,23.6
2016-06-04T15:51:45.824Z,23.5
2016-06-04T15:54:49.238Z,23.5
2016-06-04T15:58:02.294Z,23.5
2016-06-04T16:01:15.489Z,23.4
2016-06-04T16:04:28.390Z,23.4
2016-06-04T16:07:46.477Z,23.4
2016-06-04T16:10:49.766Z,23.4
2016-06-04T16:14:02.743Z,23.4
2016-06-04T16:17:15.844Z,23.4
2016-06-04T16:20:26.416Z,23.4
2016-06-04T16:23:44.582Z,23.3
2016-06-04T16:26:52.762Z,23.3
2016-06-04T16:29:55.785Z,23.2
2016-06-04T16:33:08.668Z,23.2
2016-06-04T16:36:20.334Z,23.2
2016-06-04T16:39:33.375Z,23.2
2016-06-04T16:42:51.289Z,23.2
2016-06-04T16:45:54.657Z,23.1
2016-06-04T16:49:07.680Z,23
2016-06-04T16:52:20.658Z,23
2016-06-04T16:55:33.497Z,23
2016-06-04T16:58:51.379Z,22.9
2016-06-04T17:01:54.621Z,22.9
2016-06-04T17:05:07.443Z,22.9
2016-06-04T17:08:20.466Z,22.9
2016-06-04T17:11:34.273Z,22.9
2016-06-04T17:14:50.250Z,22.9
2016-06-04T17:17:54.212Z,22.9
2016-06-04T17:21:07.126Z,22.8
2016-06-04T17:24:19.775Z,22.8
2016-06-04T17:27:32.723Z,22.8
2016-06-04T17:30:50.529Z,22.8
2016-06-04T17:33:53.724Z,22.7
2016-06-04T17:37:06.779Z,22.7
2016-06-04T17:40:19.864Z,22.7
2016-06-04T17:43:33.000Z,22.6
2016-06-04T17:46:51.275Z,22.6
2016-06-04T17:49:54.438Z,22.6
2016-06-04T17:53:07.291Z,22.6
2016-06-04T17:56:20.189Z,22.5
2016-06-04T17:59:33.262Z,22.5
2016-06-04T18:02:50.942Z,22.5
2016-06-04T18:05:53.606Z,22.4
2016-06-04T18:09:06.224Z,22.3
2016-06-04T18:12:19.264Z,22.3
2016-06-04T18:15:32.036Z,22.2
2016-06-04T18:18:49.892Z,22.1
2016-06-04T18:21:52.916Z,22
2016-06-04T18:25:02.470Z,21.8
2016-06-04T18:28:15.869Z,21.6
2016-06-04T18:31:27.596Z,21.6
2016-06-04T18:34:43.841Z,21.5
2016-06-04T18:37:51.943Z,21.4
2016-06-04T18:40:55.217Z,21.3
2016-06-04T18:44:08.443Z,21.2
2016-06-04T18:47:19.514Z,21.2
2016-06-04T18:50:32.569Z,21.1
2016-06-04T18:53:50.470Z,21
2016-06-04T18:56:53.478Z,20.8
2016-06-04T19:00:06.407Z,20.6
2016-06-04T19:03:18.838Z,20.6
2016-06-04T19:06:31.424Z,20.6
2016-06-04T19:09:48.576Z,20.6
2016-06-04T19:12:51.822Z,20.6
2016-06-04T19:16:05.470Z,20.5
2016-06-04T19:19:19.054Z,20.5
2016-06-04T19:22:32.630Z,20.4
2016-06-04T19:25:50.889Z,20.4
2016-06-04T19:28:54.666Z,20.3
2016-06-04T19:32:08.223Z,20.3
2016-06-04T19:35:21.873Z,20.3
2016-06-04T19:38:35.557Z,20.2
2016-06-04T19:41:51.080Z,20.2
2016-06-04T19:44:54.884Z,20.1
2016-06-04T19:48:08.690Z,20.1
2016-06-04T19:51:22.557Z,20.1
2016-06-04T19:54:35.331Z,20
2016-06-04T19:57:54.357Z,20
2016-06-04T20:00:57.475Z,20
2016-06-04T20:04:11.265Z,20
2016-06-04T20:07:24.601Z,19.9
2016-06-04T20:10:38.267Z,19.8
2016-06-04T20:13:51.401Z,19.7
2016-06-04T20:17:04.362Z,19.6
2016-06-04T20:20:17.775Z,19.6
2016-06-04T20:23:28.691Z,19.6
2016-06-04T20:26:46.748Z,19.6
2016-06-04T20:29:50.115Z,19.6
2016-06-04T20:33:03.296Z,19.6
2016-06-04T20:36:16.490Z,19.5
2016-06-04T20:39:29.546Z,19.5
2016-06-04T20:42:47.120Z,19.5
2016-06-04T20:45:49.909Z,19.5
2016-06-04T20:49:02.479Z,19.4
2016-06-04T20:52:14.847Z,19.4
2016-06-04T20:55:26.042Z,19.4
2016-06-04T20:58:38.724Z,19.4
2016-06-04T21:01:51.170Z,19.3
2016-06-04T21:05:03.475Z,19.3
2016-06-04T21:08:16.077Z,19.3
2016-06-04T21:11:28.803Z,19.3
2016-06-04T21:14:45.862Z,19.2
2016-06-04T21:17:53.698Z,19.1
2016-06-04T21:20:56.190Z,19.1
2016-06-04T21:24:08.808Z,19.1
2016-06-04T21:27:22.300Z,19.2
2016-06-04T21:30:33.996Z,19.1
2016-06-04T21:33:53.397Z,19.1
2016-06-04T21:36:58.202Z,19
2016-06-04T21:40:12.382Z,19
2016-06-04T21:43:24.499Z,19
2016-06-04T21:46:35.960Z,18.9
2016-06-04T21:49:49.893Z,18.8
2016-06-04T21:53:03.839Z,18.8
2016-06-04T21:56:17.830Z,18.7
2016-06-04T21:59:32.292Z,18.7
2016-06-04T22:02:51.725Z,18.6
2016-06-04T22:05:56.499Z,18.6
2016-06-04T22:09:10.851Z,18.5
2016-06-04T22:12:25.280Z,18.5
2016-06-04T22:15:39.445Z,18.4
2016-06-04T22:18:53.846Z,18.4
2016-06-04T22:22:08.276Z,18.4
2016-06-04T22:25:22.628Z,18.4
2016-06-04T22:28:37.167Z,18.3
2016-06-04T22:31:51.866Z,18.3
2016-06-04T22:35:04.326Z,18.2
2016-06-04T22:38:18.382Z,18.1
2016-06-04T22:41:32.733Z,18
2016-06-04T22:44:52.010Z,17.9
2016-06-04T22:47:56.596Z,17.9
2016-06-04T22:51:10.651Z,17.8
2016-06-04T22:54:24.878Z,17.8
2016-06-04T22:57:39.213Z,17.7
2016-06-04T23:00:53.209Z,17.7
2016-06-04T23:04:07.452Z,17.7
2016-06-04T23:07:21.757Z,17.6
2016-06-04T23:10:36.140Z,17.6
2016-06-04T23:13:50.400Z,17.5
2016-06-04T23:17:04.659Z,17.5
2016-06-04T23:20:18.963Z,17.5
2016-06-04T23:23:33.534Z,17.4
2016-06-04T23:26:50.373Z,17.4
2016-06-04T23:29:54.989Z,17.4
2016-06-04T23:33:09.217Z,17.4
2016-06-04T23:36:23.006Z,17.3
2016-06-04T23:39:37.046Z,17.2
2016-06-04T23:42:51.104Z,17.1
2016-06-04T23:46:05.471Z,17
2016-06-04T23:49:21.307Z,17
2016-06-04T23:52:30.784Z,16.9
2016-06-04T23:55:49.981Z,16.9
2016-06-04T23:58:54.521Z,16.9
